Time;durP1;ratioP1;P1;durP2;ratioP2;P2;SDS_P1;SDS_P2;PMS_P1;PMS_P2;Temp;Humidity;BMP_temperature;BMP_pressure;BME280_temperature;BME280_humidity;BME280_pressure;Samples;Min_cycle;Max_cycle;Signal;HPM_P1;HPM_P2
2023/03/07 00:01:59;;;;;;;1999.90;999.90;;;3.70;99.90;;;;;;5058885;28;20072;-79
2023/03/07 00:04:27;;;;;;;1999.90;999.90;;;3.70;99.90;;;;;;5060373;28;20030;-81
2023/03/07 00:06:54;;;;;;;1999.90;999.90;;;3.70;99.90;;;;;;5060774;28;20103;-77
2023/03/07 00:09:20;;;;;;;1999.90;999.90;;;3.70;99.90;;;;;;5058602;28;20491;-77
2023/03/07 00:11:45;;;;;;;1999.90;999.90;;;3.70;99.90;;;;;;5059407;28;20045;-77
2023/03/07 00:14:11;;;;;;;1999.90;999.90;;;3.70;99.90;;;;;;5058770;28;20057;-77
2023/03/07 00:16:36;;;;;;;1999.90;999.90;;;3.70;99.90;;;;;;5060313;28;20034;-77
2023/03/07 00:19:02;;;;;;;1999.90;999.90;;;3.70;99.90;;;;;;5059226;28;20032;-77
2023/03/07 00:21:30;;;;;;;1999.90;999.90;;;3.60;99.90;;;;;;5062452;28;20038;-77
2023/03/07 00:23:56;;;;;;;1999.90;999.90;;;3.60;99.90;;;;;;5061285;28;20033;-77
2023/03/07 00:26:23;;;;;;;1999.90;999.90;;;3.60;99.90;;;;;;5057438;28;20037;-77
2023/03/07 00:28:51;;;;;;;1999.90;999.90;;;3.60;99.90;;;;;;5057310;28;20121;-79
2023/03/07 00:31:18;;;;;;;1999.90;999.90;;;3.70;99.90;;;;;;5056645;28;20188;-79
2023/03/07 00:33:43;;;;;;;1999.90;999.90;;;3.60;99.90;;;;;;5056889;28;20120;-79
2023/03/07 00:36:17;;;;;;;1999.90;999.90;;;3.60;99.90;;;;;;5056427;28;20579;-79
2023/03/07 00:38:44;;;;;;;1999.90;999.90;;;3.60;99.90;;;;;;5056761;28;20037;-79
2023/03/07 00:41:13;;;;;;;1999.90;999.90;;;3.60;99.90;;;;;;5056781;28;20511;-79
2023/03/07 00:43:39;;;;;;;1999.90;999.90;;;3.60;99.90;;;;;;5056760;28;20731;-79
2023/03/07 00:46:05;;;;;;;1999.90;999.90;;;3.60;99.90;;;;;;5057104;28;20483;-79
2023/03/07 00:48:33;;;;;;;1999.90;999.90;;;3.50;99.90;;;;;;5056894;28;20037;-79
2023/03/07 00:50:59;;;;;;;1999.90;999.90;;;3.50;99.90;;;;;;5056118;28;20037;-79
2023/03/07 00:53:24;;;;;;;1999.90;999.90;;;3.50;99.90;;;;;;5056425;28;20079;-79
2023/03/07 00:55:57;;;;;;;1999.90;999.90;;;3.60;99.90;;;;;;5054362;28;20029;-79
2023/03/07 00:58:23;;;;;;;1999.90;999.90;;;3.60;99.90;;;;;;5056683;28;20506;-79
2023/03/07 01:00:50;;;;;;;1999.90;999.90;;;3.60;99.90;;;;;;5056026;28;20041;-79
2023/03/07 01:03:15;;;;;;;1999.90;999.90;;;3.60;99.90;;;;;;5056254;28;20030;-79
2023/03/07 01:05:41;;;;;;;1999.90;999.90;;;3.60;99.90;;;;;;5056002;28;20030;-79
2023/03/07 01:08:07;;;;;;;1999.90;999.90;;;3.70;99.90;;;;;;5054979;28;20034;-79
2023/03/07 01:10:32;;;;;;;1999.90;999.90;;;3.70;99.90;;;;;;5056452;28;20109;-79
2023/03/07 01:12:59;;;;;;;1999.90;999.90;;;3.70;99.90;;;;;;5055979;28;20087;-79
2023/03/07 01:15:24;;;;;;;1999.90;999.90;;;3.70;99.90;;;;;;5054811;28;20057;-79
2023/03/07 01:17:50;;;;;;;1999.90;999.90;;;3.70;99.90;;;;;;5056230;28;20057;-79
2023/03/07 01:20:16;;;;;;;1999.90;999.90;;;3.70;99.90;;;;;;5054879;28;20056;-79
2023/03/07 01:22:41;;;;;;;1999.90;999.90;;;3.70;99.90;;;;;;5055960;28;20505;-78
2023/03/07 01:25:07;;;;;;;1999.90;999.90;;;3.70;99.90;;;;;;5056568;28;20034;-79
2023/03/07 01:27:33;;;;;;;1999.90;999.90;;;3.80;99.90;;;;;;5056173;28;20419;-79
2023/03/07 01:29:58;;;;;;;1999.90;999.90;;;3.80;99.90;;;;;;5056157;28;20049;-79
2023/03/07 01:32:24;;;;;;;1999.90;999.90;;;3.70;99.90;;;;;;5057425;28;20056;-79
2023/03/07 01:34:49;;;;;;;1999.90;999.90;;;3.70;99.90;;;;;;5055998;28;20033;-78
2023/03/07 01:37:15;;;;;;;1999.90;999.90;;;3.80;99.90;;;;;;5056901;28;20029;-79
2023/03/07 01:39:41;;;;;;;1999.90;999.90;;;3.80;99.90;;;;;;5055225;28;20049;-78
2023/03/07 01:42:07;;;;;;;1999.90;999.90;;;3.70;99.90;;;;;;5057068;28;20033;-79
2023/03/07 01:45:03;;;;;;;1999.90;999.90;;;3.70;99.90;;;;;;5056592;28;20033;-79
2023/03/07 01:47:29;;;;;;;1999.90;999.90;;;3.60;99.90;;;;;;5056737;28;20124;-79
2023/03/07 01:49:56;;;;;;;1999.90;999.90;;;3.60;99.90;;;;;;5054988;28;20448;-79
2023/03/07 01:52:28;;;;;;;1999.90;999.90;;;3.60;99.90;;;;;;5056360;28;20048;-79
2023/03/07 01:54:58;;;;;;;1999.90;999.90;;;3.60;99.90;;;;;;5056662;28;20030;-79
2023/03/07 01:57:31;;;;;;;1999.90;999.90;;;3.60;99.90;;;;;;5057472;28;20038;-79
2023/03/07 02:00:00;;;;;;;1999.90;999.90;;;3.60;99.90;;;;;;5057093;28;20041;-79
2023/03/07 02:02:28;;;;;;;1999.90;999.90;;;3.50;99.90;;;;;;5057263;28;20029;-79
2023/03/07 02:04:59;;;;;;;1999.90;999.90;;;3.60;99.90;;;;;;5056881;28;20183;-79
2023/03/07 02:07:30;;;;;;;1999.90;999.90;;;3.60;99.90;;;;;;5057396;28;20037;-79
2023/03/07 02:09:57;;;;;;;1999.90;999.90;;;3.60;99.90;;;;;;5057293;28;20037;-78
2023/03/07 02:12:23;;;;;;;1999.90;999.90;;;3.60;99.90;;;;;;5057239;28;20034;-78
2023/03/07 02:14:49;;;;;;;1999.90;999.90;;;3.60;99.90;;;;;;5057174;28;20038;-79
2023/03/07 02:17:15;;;;;;;1999.90;999.90;;;3.60;99.90;;;;;;5057549;28;20037;-78
2023/03/07 02:19:52;;;;;;;1999.90;999.90;;;3.60;99.90;;;;;;5058139;28;20045;-79
2023/03/07 02:22:18;;;;;;;1999.90;999.90;;;3.50;99.90;;;;;;5057984;28;20029;-79
2023/03/07 02:25:02;;;;;;;1999.90;999.90;;;3.40;99.90;;;;;;5056380;28;20475;-79
2023/03/07 02:27:32;;;;;;;1999.90;999.90;;;3.40;99.90;;;;;;5056199;28;20053;-79
2023/03/07 02:29:57;;;;;;;1999.90;999.90;;;3.30;99.90;;;;;;5058403;28;20541;-78
2023/03/07 02:32:23;;;;;;;1999.90;999.90;;;3.30;99.90;;;;;;5057740;28;20092;-79
2023/03/07 02:34:48;;;;;;;1999.90;999.90;;;3.30;99.90;;;;;;5057184;28;20034;-79
2023/03/07 02:37:20;;;;;;;1999.90;999.90;;;3.20;99.90;;;;;;5057341;28;20501;-79
2023/03/07 02:39:47;;;;;;;1999.90;999.90;;;3.20;99.90;;;;;;5058721;28;20033;-79
2023/03/07 02:42:17;;;;;;;1999.90;999.90;;;3.10;99.90;;;;;;5069581;28;20034;-79
2023/03/07 02:44:46;;;;;;;1999.90;999.90;;;3.10;99.90;;;;;;5058148;28;20057;-78
2023/03/07 02:47:12;;;;;;;1999.90;999.90;;;3.10;99.90;;;;;;5059385;28;20034;-79
2023/03/07 02:49:37;;;;;;;1999.90;999.90;;;3.10;99.90;;;;;;5058486;28;20034;-78
2023/03/07 02:52:03;;;;;;;1999.90;999.90;;;3.10;99.90;;;;;;5058062;28;20461;-79
2023/03/07 02:54:29;;;;;;;1999.90;999.90;;;3.10;99.90;;;;;;5056714;28;20116;-79
2023/03/07 02:56:54;;;;;;;1999.90;999.90;;;3.00;99.90;;;;;;5058629;28;20434;-79
2023/03/07 02:59:20;;;;;;;1999.90;999.90;;;3.10;99.90;;;;;;5056576;28;20042;-79
2023/03/07 03:01:46;;;;;;;1999.90;999.90;;;3.10;99.90;;;;;;5056552;28;20452;-78
2023/03/07 03:04:11;;;;;;;1999.90;999.90;;;3.00;99.90;;;;;;5056234;28;20040;-79
2023/03/07 03:06:37;;;;;;;1999.90;999.90;;;3.00;99.90;;;;;;5059044;28;20048;-77
2023/03/07 03:09:02;;;;;;;1999.90;999.90;;;3.00;99.90;;;;;;5059147;28;20038;-77
2023/03/07 03:11:28;;;;;;;1999.90;999.90;;;3.00;99.90;;;;;;5058169;28;20034;-77
2023/03/07 03:13:53;;;;;;;1999.90;999.90;;;3.00;99.90;;;;;;5058063;28;20026;-77
2023/03/07 03:16:19;;;;;;;1999.90;999.90;;;3.00;99.90;;;;;;5058507;28;20491;-76
2023/03/07 03:18:45;;;;;;;1999.90;999.90;;;3.00;99.90;;;;;;5057075;28;20812;-77
2023/03/07 03:21:11;;;;;;;1999.90;999.90;;;2.90;99.90;;;;;;5056619;28;20041;-77
2023/03/07 03:23:36;;;;;;;1999.90;999.90;;;2.90;99.90;;;;;;5058046;28;20149;-77
2023/03/07 03:26:06;;;;;;;1999.90;999.90;;;2.90;99.90;;;;;;5057907;28;20116;-77
2023/03/07 03:28:35;;;;;;;1999.90;999.90;;;2.90;99.90;;;;;;5058256;28;20028;-77
2023/03/07 03:31:09;;;;;;;1999.90;999.90;;;2.90;99.90;;;;;;5056478;28;20060;-77
2023/03/07 03:33:36;;;;;;;1999.90;999.90;;;3.00;99.90;;;;;;5058087;28;20080;-77
2023/03/07 03:36:07;;;;;;;1999.90;999.90;;;2.90;99.90;;;;;;5058168;28;20034;-77
2023/03/07 03:38:33;;;;;;;1999.90;999.90;;;2.90;99.90;;;;;;5059454;28;20076;-77
2023/03/07 03:41:01;;;;;;;1999.90;999.90;;;3.00;99.90;;;;;;5058462;28;20109;-77
2023/03/07 03:43:27;;;;;;;1999.90;999.90;;;3.00;99.90;;;;;;5058460;28;20088;-77
2023/03/07 03:45:56;;;;;;;1999.90;999.90;;;3.00;99.90;;;;;;5058106;28;20065;-77
2023/03/07 03:48:22;;;;;;;1999.90;999.90;;;3.00;99.90;;;;;;5056837;28;20204;-77
2023/03/07 03:50:48;;;;;;;1999.90;999.90;;;3.00;99.90;;;;;;5058270;28;20187;-77
2023/03/07 03:53:13;;;;;;;1999.90;999.90;;;3.00;99.90;;;;;;5058428;28;20045;-77
2023/03/07 03:55:39;;;;;;;1999.90;999.90;;;3.00;99.90;;;;;;5058007;28;20041;-77
2023/03/07 03:58:04;;;;;;;1999.90;999.90;;;3.10;99.90;;;;;;5058670;28;20046;-76
2023/03/07 04:00:30;;;;;;;1999.90;999.90;;;3.10;99.90;;;;;;5058944;28;20025;-77
2023/03/07 04:02:56;;;;;;;1999.90;999.90;;;3.10;99.90;;;;;;5058099;28;20038;-77
2023/03/07 04:05:22;;;;;;;1999.90;999.90;;;3.10;99.90;;;;;;5058029;28;20025;-76
2023/03/07 04:07:48;;;;;;;1999.90;999.90;;;3.10;99.90;;;;;;5056700;28;20425;-76
2023/03/07 04:10:14;;;;;;;1999.90;999.90;;;3.10;99.90;;;;;;5058710;28;20084;-77
2023/03/07 04:12:39;;;;;;;1999.90;999.90;;;3.10;99.90;;;;;;5058222;28;20561;-77
2023/03/07 04:15:06;;;;;;;1999.90;999.90;;;3.10;99.90;;;;;;5059147;28;20034;-77
2023/03/07 04:17:32;;;;;;;1999.90;999.90;;;3.10;99.90;;;;;;5058672;28;20125;-77
2023/03/07 04:19:57;;;;;;;1999.90;999.90;;;3.10;99.90;;;;;;5059056;28;20063;-77
2023/03/07 04:22:23;;;;;;;1999.90;999.90;;;3.10;99.90;;;;;;5057248;28;20434;-77
2023/03/07 04:24:49;;;;;;;1999.90;999.90;;;3.10;99.90;;;;;;5057119;28;20036;-76
2023/03/07 04:27:14;;;;;;;1999.90;999.90;;;3.10;99.90;;;;;;5059464;28;20041;-77
2023/03/07 04:29:40;;;;;;;1999.90;999.90;;;3.10;99.90;;;;;;5059522;28;20387;-77
2023/03/07 04:32:05;;;;;;;1999.90;999.90;;;3.10;99.90;;;;;;5056055;28;20398;-77
2023/03/07 04:34:31;;;;;;;1999.90;999.90;;;3.10;99.90;;;;;;5054379;28;20049;-76
2023/03/07 04:36:56;;;;;;;1999.90;999.90;;;3.20;99.90;;;;;;5054471;28;20116;-76
2023/03/07 04:39:22;;;;;;;1999.90;999.90;;;3.20;99.90;;;;;;5054439;28;20120;-76
2023/03/07 04:41:47;;;;;;;1999.90;999.90;;;3.30;99.90;;;;;;5055791;28;20033;-76
2023/03/07 04:44:15;;;;;;;1999.90;999.90;;;3.20;99.90;;;;;;5053888;28;20040;-76
2023/03/07 04:46:40;;;;;;;1999.90;999.90;;;3.30;99.90;;;;;;5055575;28;20041;-77
2023/03/07 04:49:06;;;;;;;1999.90;999.90;;;3.30;99.90;;;;;;5055773;28;20206;-76
2023/03/07 04:51:31;;;;;;;1999.90;999.90;;;3.30;99.90;;;;;;5055335;28;20030;-76
2023/03/07 04:53:57;;;;;;;1999.90;999.90;;;3.30;99.90;;;;;;5055433;28;20104;-76
2023/03/07 04:56:22;;;;;;;1999.90;999.90;;;3.30;99.90;;;;;;5055469;28;20056;-75
2023/03/07 04:58:48;;;;;;;1999.90;999.90;;;3.30;99.90;;;;;;5055457;28;20113;-76
2023/03/07 05:01:14;;;;;;;1999.90;999.90;;;3.40;99.90;;;;;;5055075;28;20483;-76
2023/03/07 05:03:39;;;;;;;1999.90;999.90;;;3.40;99.90;;;;;;5054058;28;20032;-76
2023/03/07 05:06:08;;;;;;;1999.90;999.90;;;3.40;99.90;;;;;;5054450;28;20538;-76
2023/03/07 05:08:34;;;;;;;1999.90;999.90;;;3.50;99.90;;;;;;5055152;28;20120;-77
2023/03/07 05:11:00;;;;;;;1999.90;999.90;;;3.40;99.90;;;;;;5055139;28;20863;-76
2023/03/07 05:13:26;;;;;;;1999.90;999.90;;;3.50;99.90;;;;;;5055333;28;20034;-76
2023/03/07 05:15:53;;;;;;;1999.90;999.90;;;3.50;99.90;;;;;;5055037;28;20037;-76
2023/03/07 05:18:19;;;;;;;1999.90;999.90;;;3.50;99.90;;;;;;5055348;28;20528;-77
2023/03/07 05:20:45;;;;;;;1999.90;999.90;;;3.50;99.90;;;;;;5055269;28;20036;-76
2023/03/07 05:23:11;;;;;;;1999.90;999.90;;;3.50;99.90;;;;;;5055000;28;20033;-76
2023/03/07 05:25:36;;;;;;;1999.90;999.90;;;3.50;99.90;;;;;;5054931;28;20488;-75
2023/03/07 05:28:02;;;;;;;1999.90;999.90;;;3.50;99.90;;;;;;5054565;28;20376;-77
2023/03/07 05:30:28;;;;;;;1999.90;999.90;;;3.50;99.90;;;;;;5054809;28;20113;-76
2023/03/07 05:32:53;;;;;;;1999.90;999.90;;;3.50;99.90;;;;;;5053088;28;20041;-76
2023/03/07 05:35:23;;;;;;;1999.90;999.90;;;3.60;99.90;;;;;;5054834;28;20079;-76
2023/03/07 05:37:48;;;;;;;1999.90;999.90;;;3.60;99.90;;;;;;5053561;28;20113;-76
2023/03/07 05:40:14;;;;;;;1999.90;999.90;;;3.60;99.90;;;;;;5055055;28;20034;-76
2023/03/07 05:42:40;;;;;;;1999.90;999.90;;;3.60;99.90;;;;;;5054790;28;20050;-76
2023/03/07 05:45:06;;;;;;;1999.90;999.90;;;3.60;99.90;;;;;;5054029;28;20407;-76
2023/03/07 05:47:32;;;;;;;1999.90;999.90;;;3.60;99.90;;;;;;5055349;28;20505;-77
2023/03/07 05:49:57;;;;;;;1999.90;999.90;;;3.60;99.90;;;;;;5057643;28;20040;-76
2023/03/07 05:52:23;;;;;;;1999.90;999.90;;;3.60;99.90;;;;;;5053033;28;20503;-75
2023/03/07 05:54:48;;;;;;;1999.90;999.90;;;3.60;99.90;;;;;;5052849;28;20033;-76
2023/03/07 05:57:14;;;;;;;1999.90;999.90;;;3.60;99.90;;;;;;5054481;28;20427;-76
2023/03/07 05:59:39;;;;;;;1999.90;999.90;;;3.70;99.90;;;;;;5054653;28;20037;-76
2023/03/07 06:02:05;;;;;;;1999.90;999.90;;;3.70;99.90;;;;;;5053066;28;20026;-76
2023/03/07 06:04:30;;;;;;;1999.90;999.90;;;3.70;99.90;;;;;;5052800;28;20521;-77
2023/03/07 06:06:56;;;;;;;1999.90;999.90;;;3.60;99.90;;;;;;5054733;28;20068;-76
2023/03/07 06:09:24;;;;;;;1999.90;999.90;;;3.60;99.90;;;;;;5053130;28;20054;-76
2023/03/07 06:11:49;;;;;;;1999.90;999.90;;;3.60;99.90;;;;;;5054472;28;20088;-76
2023/03/07 06:14:15;;;;;;;1999.90;999.90;;;3.60;99.90;;;;;;5054321;28;20534;-77
2023/03/07 06:16:40;;;;;;;1999.90;999.90;;;3.60;99.90;;;;;;5054699;28;20069;-77
2023/03/07 06:19:06;;;;;;;1999.90;999.90;;;3.60;99.90;;;;;;5055979;28;20120;-77
2023/03/07 06:21:31;;;;;;;1999.90;999.90;;;3.50;99.90;;;;;;5057998;28;20052;-77
2023/03/07 06:23:57;;;;;;;1999.90;999.90;;;3.50;99.90;;;;;;5057849;28;20080;-76
2023/03/07 06:26:22;;;;;;;1999.90;999.90;;;3.50;99.90;;;;;;5056476;28;20033;-76
2023/03/07 06:28:49;;;;;;;1999.90;999.90;;;3.60;99.90;;;;;;5057983;28;20030;-76
2023/03/07 06:31:17;;;;;;;1999.90;999.90;;;3.60;99.90;;;;;;5056229;28;20091;-77
2023/03/07 06:33:43;;;;;;;1999.90;999.90;;;3.60;99.90;;;;;;5057470;28;20029;-76
2023/03/07 06:36:12;;;;;;;1999.90;999.90;;;3.60;99.90;;;;;;5057560;28;20059;-77
2023/03/07 06:38:38;;;;;;;1999.90;999.90;;;3.60;99.90;;;;;;5056354;28;20120;-77
2023/03/07 06:41:04;;;;;;;1999.90;999.90;;;3.60;99.90;;;;;;5057617;28;20091;-77
2023/03/07 06:43:29;;;;;;;1999.90;999.90;;;3.60;99.90;;;;;;5057686;28;20033;-77
2023/03/07 06:45:55;;;;;;;1999.90;999.90;;;3.70;99.90;;;;;;5057146;28;20475;-77
2023/03/07 06:48:21;;;;;;;1999.90;999.90;;;3.70;99.90;;;;;;5057488;28;20033;-77
2023/03/07 06:50:46;;;;;;;1999.90;999.90;;;3.70;99.90;;;;;;5057001;28;20034;-77
2023/03/07 06:53:12;;;;;;;1999.90;999.90;;;3.80;99.90;;;;;;5057606;28;20104;-78
2023/03/07 06:55:38;;;;;;;1999.90;999.90;;;3.80;99.90;;;;;;5057366;28;20037;-77
2023/03/07 06:58:03;;;;;;;1999.90;999.90;;;3.90;99.90;;;;;;5057542;28;20045;-77
2023/03/07 07:00:29;;;;;;;1999.90;999.90;;;3.90;99.90;;;;;;5057566;28;20037;-77
2023/03/07 07:02:55;;;;;;;1999.90;999.90;;;3.90;99.90;;;;;;5056981;28;20033;-77
2023/03/07 07:05:21;;;;;;;1999.90;999.90;;;4.00;99.90;;;;;;5056554;28;20025;-77
2023/03/07 07:07:46;;;;;;;1999.90;999.90;;;4.00;99.90;;;;;;5055753;28;20042;-77
2023/03/07 07:10:12;;;;;;;1999.90;999.90;;;4.00;99.90;;;;;;5057004;28;20064;-77
2023/03/07 07:12:38;;;;;;;1999.90;999.90;;;4.00;99.90;;;;;;5055603;28;20069;-77
2023/03/07 07:15:04;;;;;;;1999.90;999.90;;;4.10;99.90;;;;;;5055567;28;20386;-77
2023/03/07 07:17:30;;;;;;;1999.90;999.90;;;4.10;99.90;;;;;;5057277;28;20443;-78
2023/03/07 07:19:56;;;;;;;1999.90;999.90;;;4.10;99.90;;;;;;5057255;28;20029;-78
2023/03/07 07:22:22;;;;;;;1999.90;999.90;;;4.20;99.90;;;;;;5057022;28;20037;-77
2023/03/07 07:24:48;;;;;;;1999.90;999.90;;;4.30;99.90;;;;;;5055533;28;20534;-77
2023/03/07 07:27:13;;;;;;;1999.90;999.90;;;4.40;99.90;;;;;;5057069;28;20112;-77
2023/03/07 07:29:39;;;;;;;1999.90;999.90;;;4.40;99.90;;;;;;5056490;28;20034;-77
2023/03/07 07:32:05;;;;;;;1999.90;999.90;;;4.50;99.90;;;;;;5055135;28;20046;-78
2023/03/07 07:34:31;;;;;;;1999.90;999.90;;;4.60;99.90;;;;;;5056525;28;20034;-78
2023/03/07 07:36:56;;;;;;;1999.90;999.90;;;4.70;99.90;;;;;;5055406;28;20029;-77
2023/03/07 07:39:23;;;;;;;1999.90;999.90;;;4.80;99.90;;;;;;5056922;28;20033;-77
2023/03/07 07:41:48;;;;;;;1999.90;999.90;;;4.80;99.90;;;;;;5056701;28;20037;-77
2023/03/07 07:44:14;;;;;;;1999.90;999.90;;;5.00;99.90;;;;;;5056602;28;20479;-77
2023/03/07 07:46:39;;;;;;;1999.90;999.90;;;5.10;99.90;;;;;;5056815;28;20033;-77
2023/03/07 07:49:05;;;;;;;1999.90;999.90;;;5.30;99.90;;;;;;5055049;28;20175;-77
2023/03/07 07:51:32;;;;;;;1999.90;999.90;;;5.40;99.90;;;;;;5055004;28;20069;-77
2023/03/07 07:53:58;;;;;;;1999.90;999.90;;;5.50;99.90;;;;;;5056318;28;20037;-77
2023/03/07 07:56:24;;;;;;;1999.90;999.90;;;5.40;99.90;;;;;;5055021;28;20501;-77
2023/03/07 07:58:52;;;;;;;1999.90;999.90;;;5.60;99.90;;;;;;5056803;28;20042;-77
2023/03/07 08:01:23;;;;;;;1999.90;999.90;;;5.90;99.90;;;;;;5054949;28;20041;-77
2023/03/07 08:03:49;;;;;;;1999.90;999.90;;;6.10;99.90;;;;;;5056284;28;20029;-77
2023/03/07 08:06:23;;;;;;;1999.90;999.90;;;6.10;99.90;;;;;;5056283;28;20044;-77
2023/03/07 08:08:49;;;;;;;1999.90;999.90;;;6.10;99.90;;;;;;5056203;28;20461;-77
2023/03/07 08:11:16;;;;;;;1999.90;999.90;;;6.10;99.90;;;;;;5054742;28;20033;-77
2023/03/07 08:13:41;;;;;;;1999.90;999.90;;;6.00;99.90;;;;;;5054751;28;20025;-77
2023/03/07 08:16:12;;;;;;;1999.90;999.90;;;6.00;99.90;;;;;;5056187;28;20037;-76
2023/03/07 08:18:37;;;;;;;1999.90;999.90;;;6.00;99.90;;;;;;5056462;28;20037;-77
2023/03/07 08:21:03;;;;;;;1999.90;999.90;;;6.00;99.90;;;;;;5056019;28;20060;-77
2023/03/07 08:23:29;;;;;;;1999.90;999.90;;;6.20;99.90;;;;;;5054534;28;20523;-77
2023/03/07 08:25:54;;;;;;;1999.90;999.90;;;6.30;99.90;;;;;;5054141;28;20038;-77
2023/03/07 08:28:20;;;;;;;1999.90;999.90;;;6.50;99.90;;;;;;5056017;28;20038;-77
2023/03/07 08:30:45;;;;;;;1999.90;999.90;;;6.70;99.90;;;;;;5056035;28;20040;-77
2023/03/07 08:33:11;;;;;;;1999.90;999.90;;;6.80;99.90;;;;;;5055955;28;20446;-77
2023/03/07 08:35:38;;;;;;;1999.90;999.90;;;6.80;99.90;;;;;;5055717;28;20057;-77
2023/03/07 08:38:04;;;;;;;1999.90;999.90;;;6.90;99.90;;;;;;5055914;28;20068;-78
2023/03/07 08:40:30;;;;;;;1999.90;999.90;;;6.80;99.90;;;;;;5053427;28;20069;-77
2023/03/07 08:42:57;;;;;;;1999.90;999.90;;;6.80;99.90;;;;;;5055666;28;20171;-77
2023/03/07 08:45:23;;;;;;;1999.90;999.90;;;6.90;99.90;;;;;;5055595;28;20049;-77
2023/03/07 08:47:52;;;;;;;1999.90;999.90;;;6.90;99.90;;;;;;5055639;28;20081;-77
2023/03/07 08:50:18;;;;;;;1999.90;999.90;;;6.80;99.90;;;;;;5055659;28;20033;-77
2023/03/07 08:52:44;;;;;;;1999.90;999.90;;;6.80;99.90;;;;;;5054057;28;20033;-77
2023/03/07 08:55:10;;;;;;;1999.90;999.90;;;6.80;99.90;;;;;;5055194;28;20025;-77
2023/03/07 08:57:35;;;;;;;1999.90;999.90;;;6.90;99.90;;;;;;5055521;28;20499;-77
2023/03/07 09:00:01;;;;;;;1999.90;999.90;;;6.80;99.90;;;;;;5055825;28;20034;-77
2023/03/07 09:02:26;;;;;;;1999.90;999.90;;;6.90;99.90;;;;;;5055320;28;20064;-77
2023/03/07 09:04:52;;;;;;;1999.90;999.90;;;7.00;99.80;;;;;;5054422;28;20399;-77
2023/03/07 09:07:18;;;;;;;1999.90;999.90;;;7.20;99.70;;;;;;5053934;28;20041;-78
2023/03/07 09:09:43;;;;;;;1999.90;999.90;;;7.30;98.70;;;;;;5053920;28;20080;-77
2023/03/07 09:12:09;;;;;;;1999.90;999.90;;;7.30;98.80;;;;;;5053803;28;20518;-77
2023/03/07 09:14:34;;;;;;;1999.90;999.90;;;7.40;99.50;;;;;;5055163;28;20029;-77
2023/03/07 09:17:00;;;;;;;1999.90;999.90;;;7.40;97.80;;;;;;5055538;28;20487;-77
2023/03/07 09:19:26;;;;;;;1999.90;999.90;;;7.50;98.70;;;;;;5055476;28;20029;-77
2023/03/07 09:21:51;;;;;;;1999.90;999.90;;;7.60;97.10;;;;;;5053479;28;20061;-77
2023/03/07 09:24:17;;;;;;;1999.90;999.90;;;7.50;97.30;;;;;;5054972;28;20058;-77
2023/03/07 09:26:42;;;;;;;1999.90;999.90;;;7.70;97.10;;;;;;5055176;28;20037;-78
2023/03/07 09:29:09;;;;;;;1999.90;999.90;;;7.90;96.00;;;;;;5055059;28;20121;-78
2023/03/07 09:31:34;;;;;;;1999.90;999.90;;;7.90;96.40;;;;;;5053237;28;20037;-78
2023/03/07 09:34:00;;;;;;;1999.90;999.90;;;8.20;95.10;;;;;;5054603;28;20022;-78
2023/03/07 09:36:25;;;;;;;1999.90;999.90;;;8.40;95.50;;;;;;5053549;28;20380;-78
2023/03/07 09:38:51;;;;;;;1999.90;999.90;;;8.50;94.80;;;;;;5055041;28;20461;-78
2023/03/07 09:41:39;;;;;;;1999.90;999.90;;;8.40;95.30;;;;;;5053320;28;20033;-78
2023/03/07 09:44:30;;;;;;;1999.90;999.90;;;8.90;94.80;;;;;;5046233;28;20033;-78
2023/03/07 09:47:16;;;;;;;1999.90;999.90;;;8.80;93.30;;;;;;5053438;28;20561;-78
2023/03/07 09:49:46;;;;;;;1999.90;999.90;;;8.60;93.00;;;;;;5055000;28;20029;-78
2023/03/07 09:52:18;;;;;;;1999.90;999.90;;;8.20;93.70;;;;;;5054216;28;20037;-78
2023/03/07 09:54:49;;;;;;;1999.90;999.90;;;8.10;93.70;;;;;;5053240;28;20117;-77
2023/03/07 09:57:32;;;;;;;1999.90;999.90;;;8.10;92.70;;;;;;5053503;28;20033;-78
2023/03/07 10:00:00;;;;;;;1999.90;999.90;;;7.90;93.70;;;;;;5054708;28;20567;-78
2023/03/07 10:02:46;;;;;;;1999.90;999.90;;;7.70;93.00;;;;;;5054306;28;20449;-78
2023/03/07 10:05:36;;;;;;;1999.90;999.90;;;7.60;93.30;;;;;;5052376;28;20832;-78
2023/03/07 10:08:04;;;;;;;1999.90;999.90;;;7.60;93.90;;;;;;5054187;28;20099;-78
2023/03/07 10:10:38;;;;;;;1999.90;999.90;;;7.70;93.80;;;;;;5054628;28;20037;-77
2023/03/07 10:13:35;;;;;;;1999.90;999.90;;;7.80;94.30;;;;;;5053127;28;20025;-77
2023/03/07 10:16:25;;;;;;;1999.90;999.90;;;7.60;93.80;;;;;;5054346;28;20029;-78
2023/03/07 10:19:30;;;;;;;1999.90;999.90;;;7.60;93.70;;;;;;5054709;28;20539;-78
2023/03/07 10:22:11;;;;;;;1999.90;999.90;;;7.40;93.50;;;;;;5054482;28;20029;-78
2023/03/07 10:24:56;;;;;;;1999.90;999.90;;;7.40;93.70;;;;;;5052576;28;20041;-79
2023/03/07 10:27:27;;;;;;;1999.90;999.90;;;7.30;93.10;;;;;;5053922;28;20045;-78
2023/03/07 10:29:55;;;;;;;1999.90;999.90;;;7.20;93.50;;;;;;5053944;28;20029;-78
2023/03/07 10:32:47;;;;;;;1999.90;999.90;;;7.20;93.70;;;;;;5053312;28;20415;-77
2023/03/07 10:35:23;;;;;;;1999.90;999.90;;;7.30;92.90;;;;;;5055143;28;20117;-78
2023/03/07 10:38:22;;;;;;;1999.90;999.90;;;7.30;92.50;;;;;;5055520;28;20033;-77
2023/03/07 10:40:56;;;;;;;1999.90;999.90;;;7.40;93.00;;;;;;5053774;28;20083;-77
2023/03/07 10:43:25;;;;;;;1999.90;999.90;;;7.60;93.30;;;;;;5055991;28;20463;-78
2023/03/07 10:45:59;;;;;;;1999.90;999.90;;;7.50;92.20;;;;;;5053736;28;20037;-77
2023/03/07 10:48:26;;;;;;;1999.90;999.90;;;7.60;92.80;;;;;;5055552;28;20064;-77
2023/03/07 10:51:15;;;;;;;1999.90;999.90;;;7.70;92.70;;;;;;5053630;28;20054;-77
2023/03/07 10:53:41;;;;;;;1999.90;999.90;;;7.60;91.40;;;;;;5055556;28;20406;-77
2023/03/07 10:56:17;;;;;;;1999.90;999.90;;;7.80;91.40;;;;;;5055019;28;20030;-77
2023/03/07 10:59:04;;;;;;;1999.90;999.90;;;8.10;91.80;;;;;;5054201;28;20526;-77
2023/03/07 11:01:32;;;;;;;1999.90;999.90;;;8.10;91.30;;;;;;5054272;28;20043;-77
2023/03/07 11:04:21;;;;;;;1999.90;999.90;;;8.10;90.80;;;;;;5056246;28;20041;-77
2023/03/07 11:06:55;;;;;;;1999.90;999.90;;;8.30;91.50;;;;;;5058803;28;20039;-77
2023/03/07 11:09:27;;;;;;;1999.90;999.90;;;8.70;91.80;;;;;;5065456;28;20044;-77
2023/03/07 11:12:03;;;;;;;1999.90;999.90;;;8.80;90.30;;;;;;5059812;28;20061;-77
2023/03/07 11:14:29;;;;;;;1999.90;999.90;;;8.70;88.90;;;;;;5059969;28;20033;-77
2023/03/07 11:16:56;;;;;;;1999.90;999.90;;;8.70;89.20;;;;;;5058343;28;20033;-77
2023/03/07 11:19:27;;;;;;;1999.90;999.90;;;8.70;88.70;;;;;;5058875;28;20056;-77
2023/03/07 11:21:54;;;;;;;1999.90;999.90;;;9.00;88.80;;;;;;5062581;28;20060;-77
2023/03/07 11:24:26;;;;;;;1999.90;999.90;;;9.40;87.50;;;;;;5062261;28;20033;-77
2023/03/07 11:26:56;;;;;;;1999.90;999.90;;;9.30;83.30;;;;;;5063547;28;20038;-77
2023/03/07 11:29:23;;;;;;;1999.90;999.90;;;8.80;83.60;;;;;;5063214;28;20029;-77
2023/03/07 11:31:58;;;;;;;1999.90;999.90;;;8.90;87.90;;;;;;5062472;28;20049;-77
2023/03/07 11:34:42;;;;;;;1999.90;999.90;;;9.30;86.10;;;;;;5064743;28;20545;-77
2023/03/07 11:37:28;;;;;;;1999.90;999.90;;;9.20;81.80;;;;;;5063701;28;20753;-77
2023/03/07 11:39:57;;;;;;;1999.90;999.90;;;9.20;84.60;;;;;;5060989;28;20037;-77
2023/03/07 11:42:46;;;;;;;1999.90;999.90;;;9.00;85.00;;;;;;5062821;28;20037;-77
2023/03/07 11:45:25;;;;;;;1999.90;999.90;;;8.80;85.20;;;;;;5062002;28;20172;-77
2023/03/07 11:48:00;;;;;;;1999.90;999.90;;;8.60;85.40;;;;;;5061211;28;20037;-77
2023/03/07 11:50:29;;;;;;;1999.90;999.90;;;8.40;85.00;;;;;;5060898;28;20846;-77
2023/03/07 11:53:32;;;;;;;1999.90;999.90;;;8.20;86.60;;;;;;5062261;28;20038;-77
2023/03/07 11:56:07;;;;;;;1999.90;999.90;;;8.40;86.60;;;;;;5064217;28;20026;-78
2023/03/07 11:58:39;;;;;;;1999.90;999.90;;;8.40;85.70;;;;;;5061048;28;20041;-77
2023/03/07 12:01:23;;;;;;;1999.90;999.90;;;8.60;86.30;;;;;;5059164;28;20036;-77
2023/03/07 12:04:10;;;;;;;1999.90;999.90;;;8.80;85.80;;;;;;5057640;28;20033;-77
2023/03/07 12:06:36;;;;;;;1999.90;999.90;;;9.00;85.00;;;;;;5057725;28;20069;-77
2023/03/07 12:09:13;;;;;;;1999.90;999.90;;;8.80;84.50;;;;;;5058145;28;20053;-77
2023/03/07 12:12:13;;;;;;;1999.90;999.90;;;8.90;86.00;;;;;;5056688;28;20037;-77
2023/03/07 12:15:20;;;;;;;1999.90;999.90;;;8.80;86.00;;;;;;5057118;28;20032;-77
2023/03/07 12:18:14;;;;;;;1999.90;999.90;;;8.70;85.10;;;;;;5057264;28;20525;-77